TimeCDT,TemperatureF,Dew PointF,Humidity,Sea Level PressureIn,VisibilityMPH,Wind Direction,Wind SpeedMPH,Gust SpeedMPH,PrecipitationIn,Events,Conditions,WindDirDegrees,DateUTC
12:53 AM,45.0,30.9,58,30.04,10.0,Calm,Calm,-,N/A,,Clear,0,2012-10-30 05:53:00
1:53 AM,44.6,30.2,57,30.07,10.0,SW,4.6,-,N/A,,Clear,230,2012-10-30 06:53:00
2:53 AM,41.0,30.9,67,30.04,10.0,SW,5.8,-,N/A,,Clear,230,2012-10-30 07:53:00
3:53 AM,41.0,30.9,67,30.02,10.0,West,5.8,-,N/A,,Clear,260,2012-10-30 08:53:00
4:53 AM,41.0,32.0,70,30.01,10.0,WSW,6.9,-,N/A,,Clear,250,2012-10-30 09:53:00
5:53 AM,41.0,32.0,70,30.01,10.0,SW,6.9,-,N/A,,Clear,220,2012-10-30 10:53:00
6:53 AM,39.9,32.0,73,30.01,10.0,SSW,6.9,-,N/A,,Clear,210,2012-10-30 11:53:00
7:53 AM,39.9,32.0,73,30.02,10.0,WSW,8.1,-,N/A,,Clear,240,2012-10-30 12:53:00
8:53 AM,46.0,34.0,63,30.02,10.0,WSW,9.2,-,N/A,,Clear,240,2012-10-30 13:53:00
9:53 AM,53.1,35.1,50,30.01,10.0,West,13.8,-,N/A,,Clear,260,2012-10-30 14:53:00
10:53 AM,62.1,37.0,39,29.99,10.0,West,9.2,-,N/A,,Clear,270,2012-10-30 15:53:00
11:53 AM,72.0,36.0,27,29.97,10.0,West,6.9,-,N/A,,Clear,280,2012-10-30 16:53:00
12:53 PM,80.1,32.0,17,29.95,10.0,NNW,13.8,-,N/A,,Clear,340,2012-10-30 17:53:00
1:53 PM,82.0,34.0,18,29.92,10.0,NW,16.1,21.9,N/A,,Clear,320,2012-10-30 18:53:00
2:53 PM,82.9,35.1,18,29.90,10.0,NNW,17.3,27.6,N/A,,Clear,330,2012-10-30 19:53:00
3:53 PM,82.9,33.1,17,29.88,10.0,NW,11.5,23.0,N/A,,Clear,320,2012-10-30 20:53:00
4:53 PM,82.0,30.9,16,29.88,10.0,NW,15.0,24.2,N/A,,Clear,320,2012-10-30 21:53:00
5:53 PM,80.1,32.0,17,29.89,10.0,NW,11.5,-,N/A,,Clear,320,2012-10-30 22:53:00
6:53 PM,69.8,32.0,25,29.94,10.0,NW,5.8,-,N/A,,Clear,320,2012-10-30 23:53:00
7:53 PM,63.0,34.0,34,29.95,10.0,North,6.9,-,N/A,,Clear,360,2012-10-31 00:53:00
8:53 PM,60.1,37.0,42,29.96,10.0,NNE,10.4,-,N/A,,Clear,30,2012-10-31 01:53:00
9:53 PM,57.0,37.9,49,29.98,10.0,NE,6.9,-,N/A,,Clear,40,2012-10-31 02:53:00
10:53 PM,50.0,36.0,59,29.99,10.0,Calm,Calm,-,N/A,,Clear,0,2012-10-31 03:53:00
11:53 PM,46.9,36.0,66,29.99,10.0,Calm,Calm,-,N/A,,Clear,0,2012-10-31 04:53:00